Terminal Aerodrome Forecast
Issued by NWS Knoxville/Tri Cities, TN

Home | Current Version | Previous Version | Text Only | Print | Product List | Glossary On
Versions: 1 2 3 4 5 6 7 8 9 10 11 12 13 14 15 16 17 18 19 20 21 22 23 24 25 26 27 28 29 30 31 32
000
FTUS44 KMRX 232323
TAFTRI
TAF
KTRI 232323Z 2400/2424 23007KT P6SM VCTS BKN035CB
      TEMPO 2400/2404 3SM -TSRA OVC020CB
     FM240400 36003KT 6SM BR SCT025 BKN100
     FM240800 00000KT 3SM BR OVC025
     FM241300 VRB03KT P6SM SCT035 BKN150=

USA.gov is the U.S. government's official web portal to all federal, state and local government web resources and services.